createdAt,value
2019-03-18T00:00:33.673Z,11.30
2019-03-18T00:03:03.963Z,11.30
2019-03-18T00:05:34.260Z,11.30
2019-03-18T00:08:07.034Z,11.20
2019-03-18T00:10:37.588Z,11.20
2019-03-18T00:13:07.864Z,11.20
2019-03-18T00:15:39.323Z,11.20
2019-03-18T00:18:09.662Z,11.20
2019-03-18T00:20:39.904Z,11.10
2019-03-18T00:23:10.174Z,11.10
2019-03-18T00:25:40.524Z,11.00
2019-03-18T00:28:10.770Z,10.90
2019-03-18T00:30:41.022Z,10.90
2019-03-18T00:33:11.321Z,10.80
2019-03-18T00:35:41.614Z,10.70
2019-03-18T00:38:11.761Z,10.60
2019-03-18T00:40:42.068Z,10.60
2019-03-18T00:43:12.344Z,10.60
2019-03-18T00:45:42.545Z,10.60
2019-03-18T00:48:13.946Z,10.60
2019-03-18T00:50:44.236Z,10.50
2019-03-18T00:53:22.414Z,10.50
2019-03-18T00:55:52.643Z,10.50
2019-03-18T00:58:22.954Z,10.40
2019-03-18T01:00:55.250Z,10.40
2019-03-18T01:03:27.372Z,10.40
2019-03-18T01:06:00.503Z,10.30
2019-03-18T01:08:30.923Z,10.30
2019-03-18T01:11:01.950Z,10.20
2019-03-18T01:13:33.391Z,10.20
2019-03-18T01:16:03.842Z,10.20
2019-03-18T01:18:34.178Z,10.20
2019-03-18T01:21:04.454Z,10.20
2019-03-18T01:23:34.802Z,10.20
2019-03-18T01:26:05.126Z,10.20
2019-03-18T01:28:41.108Z,10.20
2019-03-18T01:31:13.365Z,10.20
2019-03-18T01:33:45.036Z,10.10
2019-03-18T01:36:15.408Z,10.00
2019-03-18T01:38:47.864Z,9.70
2019-03-18T01:41:19.968Z,9.40
2019-03-18T01:43:51.545Z,9.10
2019-03-18T01:46:23.466Z,8.80
2019-03-18T01:48:53.815Z,8.70
2019-03-18T01:51:24.047Z,8.50
2019-03-18T01:53:54.280Z,8.40
2019-03-18T01:56:24.463Z,8.30
2019-03-18T01:58:54.702Z,8.20
2019-03-18T02:01:25.094Z,8.20
2019-03-18T02:03:55.318Z,8.10
2019-03-18T02:06:25.575Z,8.10
2019-03-18T02:08:55.920Z,8.10
2019-03-18T02:11:26.214Z,8.10
2019-03-18T02:13:56.544Z,8.10
2019-03-18T02:16:27.010Z,8.10
2019-03-18T02:18:57.252Z,8.10
2019-03-18T02:21:27.495Z,8.10
2019-03-18T02:23:57.819Z,8.10
2019-03-18T02:26:28.110Z,8.10
2019-03-18T02:28:58.354Z,8.10
2019-03-18T02:31:28.664Z,8.10
2019-03-18T02:33:58.932Z,8.10
2019-03-18T02:36:29.130Z,8.10
2019-03-18T02:38:59.403Z,8.10
2019-03-18T02:41:29.696Z,8.00
2019-03-18T02:44:00.008Z,8.00
2019-03-18T02:46:30.381Z,8.00
2019-03-18T02:49:00.624Z,8.00
2019-03-18T02:51:30.979Z,8.00
2019-03-18T02:54:01.271Z,7.90
2019-03-18T02:56:31.677Z,7.90
2019-03-18T02:59:01.932Z,7.80
2019-03-18T03:01:32.254Z,7.80
2019-03-18T03:04:02.508Z,7.70
2019-03-18T03:06:32.715Z,7.70
2019-03-18T03:09:03.175Z,7.60
2019-03-18T03:11:34.557Z,7.60
2019-03-18T03:14:04.924Z,7.60
2019-03-18T03:16:35.389Z,7.60
2019-03-18T03:19:05.652Z,7.60
2019-03-18T03:21:35.934Z,7.60
2019-03-18T03:24:06.263Z,7.60
2019-03-18T03:26:36.547Z,7.60
2019-03-18T03:29:06.807Z,7.60
2019-03-18T03:31:37.110Z,7.60
2019-03-18T03:34:12.943Z,7.50
2019-03-18T03:36:39.376Z,7.50
2019-03-18T03:39:09.836Z,7.50
2019-03-18T03:41:40.148Z,7.40
2019-03-18T03:44:10.433Z,7.40
2019-03-18T03:46:43.624Z,7.40
2019-03-18T03:49:12.633Z,7.40
2019-03-18T03:51:42.947Z,7.40
2019-03-18T03:54:13.306Z,7.50
2019-03-18T03:56:43.592Z,7.50
2019-03-18T03:59:13.862Z,7.50
2019-03-18T04:01:44.220Z,7.50
2019-03-18T04:04:14.423Z,7.50
2019-03-18T04:06:44.768Z,7.50
2019-03-18T04:09:15.153Z,7.50
2019-03-18T04:11:45.435Z,7.50
2019-03-18T04:14:15.798Z,7.50
2019-03-18T04:17:00.728Z,7.50
2019-03-18T04:19:17.984Z,7.50
2019-03-18T04:21:50.621Z,7.50
2019-03-18T04:24:20.180Z,7.50
2019-03-18T04:26:50.407Z,7.40
2019-03-18T04:29:23.066Z,7.40
2019-03-18T04:31:53.314Z,7.40
2019-03-18T04:34:23.571Z,7.40
2019-03-18T04:36:53.946Z,7.40
2019-03-18T04:39:24.359Z,7.40
2019-03-18T04:41:54.623Z,7.30
2019-03-18T04:44:24.923Z,7.40
2019-03-18T04:46:55.293Z,7.30
2019-03-18T04:49:25.711Z,7.40
2019-03-18T04:51:55.955Z,7.40
2019-03-18T04:54:26.222Z,7.40
2019-03-18T04:56:57.465Z,7.30
2019-03-18T04:59:27.648Z,7.30
2019-03-18T05:01:57.849Z,7.20
2019-03-18T05:04:28.231Z,7.20
2019-03-18T05:06:59.204Z,7.20
2019-03-18T05:09:29.735Z,7.10
2019-03-18T05:12:00.051Z,7.10
2019-03-18T05:14:30.300Z,7.00
2019-03-18T05:17:00.795Z,7.00
2019-03-18T05:19:31.000Z,7.00
2019-03-18T05:22:01.307Z,6.90
2019-03-18T05:24:31.550Z,6.80
2019-03-18T05:27:01.769Z,6.80
2019-03-18T05:29:32.479Z,6.80
2019-03-18T05:32:04.955Z,6.70
2019-03-18T05:34:34.801Z,6.70
2019-03-18T05:37:06.233Z,6.70
2019-03-18T05:39:36.461Z,6.60
2019-03-18T05:42:06.720Z,6.60
2019-03-18T05:44:36.988Z,6.60
2019-03-18T05:47:07.594Z,6.50
2019-03-18T05:49:37.860Z,6.50
2019-03-18T05:52:08.128Z,6.50
2019-03-18T05:54:38.467Z,6.40
2019-03-18T05:57:08.745Z,6.40
2019-03-18T05:59:39.207Z,6.30
2019-03-18T06:02:09.476Z,6.30
2019-03-18T06:04:39.721Z,6.30
2019-03-18T06:07:09.999Z,6.30
2019-03-18T06:09:50.063Z,6.30
2019-03-18T06:12:20.459Z,6.30
2019-03-18T06:14:50.699Z,6.40
2019-03-18T06:17:21.086Z,6.40
2019-03-18T06:19:51.753Z,6.50
2019-03-18T06:22:22.018Z,6.60
2019-03-18T06:24:52.386Z,6.70
2019-03-18T06:27:22.699Z,6.70
2019-03-18T06:29:52.991Z,6.80
2019-03-18T06:32:23.317Z,6.90
2019-03-18T06:34:53.555Z,6.90
2019-03-18T06:37:23.815Z,7.10
2019-03-18T06:39:54.042Z,7.10
2019-03-18T06:42:24.352Z,7.20
2019-03-18T06:44:54.872Z,7.20
2019-03-18T06:47:25.115Z,7.30
2019-03-18T06:49:55.426Z,7.30
2019-03-18T06:52:25.695Z,7.30
2019-03-18T06:54:56.164Z,7.40
2019-03-18T06:57:26.471Z,7.50
2019-03-18T06:59:56.735Z,7.60
2019-03-18T07:02:27.096Z,7.70
2019-03-18T07:04:57.367Z,7.70
2019-03-18T07:07:27.596Z,7.70
2019-03-18T07:09:57.773Z,7.80
2019-03-18T07:12:28.040Z,7.90
2019-03-18T07:14:58.312Z,8.10
2019-03-18T07:17:28.667Z,8.30
2019-03-18T07:19:58.972Z,8.50
2019-03-18T07:22:29.238Z,8.70
2019-03-18T07:24:59.387Z,8.80
2019-03-18T07:27:29.652Z,9.00
2019-03-18T07:29:59.895Z,9.10
2019-03-18T07:32:30.053Z,9.30
2019-03-18T07:35:01.216Z,9.40
2019-03-18T07:37:31.449Z,9.50
2019-03-18T07:40:01.843Z,9.60
2019-03-18T07:42:31.860Z,9.80
2019-03-18T07:45:01.832Z,9.80
2019-03-18T07:47:32.092Z,9.90
2019-03-18T07:50:02.487Z,9.90
2019-03-18T07:52:41.943Z,10.00
2019-03-18T07:55:12.913Z,10.10
2019-03-18T07:57:43.090Z,10.20
2019-03-18T08:00:13.342Z,10.20
2019-03-18T08:02:43.615Z,10.20
2019-03-18T08:05:15.174Z,10.20
2019-03-18T08:07:45.424Z,10.30
2019-03-18T08:10:15.935Z,10.30
2019-03-18T08:12:52.058Z,10.30
2019-03-18T08:15:22.394Z,10.10
2019-03-18T08:17:52.666Z,10.00
2019-03-18T08:20:22.956Z,10.00
2019-03-18T08:22:53.366Z,10.00
2019-03-18T08:25:23.603Z,10.00
2019-03-18T08:27:53.866Z,9.90
2019-03-18T08:30:24.146Z,9.90
2019-03-18T08:32:54.552Z,10.00
2019-03-18T08:35:24.807Z,10.00
2019-03-18T08:37:55.101Z,10.00
2019-03-18T08:40:25.030Z,10.10
2019-03-18T08:42:55.251Z,10.20
2019-03-18T08:45:25.566Z,10.20
2019-03-18T08:48:01.621Z,10.20
2019-03-18T08:50:31.922Z,10.20
2019-03-18T08:53:02.419Z,10.30
2019-03-18T08:55:32.339Z,10.40
2019-03-18T08:58:02.677Z,10.60
2019-03-18T09:00:32.858Z,10.70
2019-03-18T09:03:03.104Z,10.80
2019-03-18T09:05:33.398Z,10.80
2019-03-18T09:08:03.874Z,10.90
2019-03-18T09:10:34.138Z,10.90
2019-03-18T09:13:04.301Z,10.90
2019-03-18T09:15:51.364Z,11.10
2019-03-18T09:18:24.209Z,11.10
2019-03-18T09:20:56.678Z,11.30
2019-03-18T09:23:29.184Z,11.40
2019-03-18T09:26:00.103Z,11.60
2019-03-18T09:28:30.375Z,11.60
2019-03-18T09:31:00.561Z,11.60
2019-03-18T09:33:30.943Z,11.60
2019-03-18T09:36:01.358Z,11.80
2019-03-18T09:38:31.450Z,11.80
2019-03-18T09:41:01.778Z,11.80
2019-03-18T09:43:32.038Z,11.90
2019-03-18T09:46:02.455Z,12.00
2019-03-18T09:48:32.845Z,12.10
2019-03-18T09:51:03.075Z,12.30
2019-03-18T09:53:33.331Z,12.30
2019-03-18T09:56:03.611Z,12.30
2019-03-18T09:58:33.965Z,12.30
2019-03-18T10:01:04.442Z,12.40
2019-03-18T10:03:34.832Z,12.50
2019-03-18T10:06:05.033Z,12.60
2019-03-18T10:08:35.272Z,12.70
2019-03-18T10:11:05.715Z,12.80
2019-03-18T10:13:36.322Z,12.90
2019-03-18T10:16:06.693Z,13.00
2019-03-18T10:18:37.050Z,13.10
2019-03-18T10:21:07.307Z,13.20
2019-03-18T10:23:37.560Z,13.20
2019-03-18T10:26:08.141Z,13.20
2019-03-18T10:28:38.330Z,13.20
2019-03-18T10:31:08.613Z,13.30
2019-03-18T10:33:38.970Z,13.40
2019-03-18T10:36:09.239Z,13.40
2019-03-18T10:38:39.463Z,13.50
2019-03-18T10:41:09.745Z,13.60
2019-03-18T10:43:40.076Z,13.70
2019-03-18T10:46:10.269Z,13.80
2019-03-18T10:48:40.794Z,14.00
2019-03-18T10:51:11.086Z,14.10
2019-03-18T10:53:41.271Z,14.20
2019-03-18T10:56:11.623Z,14.20
2019-03-18T10:58:41.880Z,14.20
2019-03-18T11:01:12.133Z,14.30
2019-03-18T11:03:42.473Z,14.50
2019-03-18T11:06:12.729Z,14.60
2019-03-18T11:08:43.036Z,14.80
2019-03-18T11:11:13.298Z,14.90
2019-03-18T11:13:43.643Z,15.10
2019-03-18T11:16:14.118Z,15.30
2019-03-18T11:18:44.503Z,15.40
2019-03-18T11:21:14.757Z,15.50
2019-03-18T11:23:44.987Z,15.60
2019-03-18T11:26:15.190Z,15.80
2019-03-18T11:28:45.415Z,15.90
2019-03-18T11:31:15.595Z,16.00
2019-03-18T11:33:45.916Z,15.90
2019-03-18T11:36:16.182Z,16.10
2019-03-18T11:38:46.410Z,16.50
2019-03-18T11:41:17.587Z,17.10
2019-03-18T11:43:48.015Z,17.90
2019-03-18T11:46:19.080Z,18.30
2019-03-18T11:48:52.853Z,18.70
2019-03-18T11:51:23.140Z,18.80
2019-03-18T11:53:53.403Z,19.30
2019-03-18T11:56:23.762Z,19.90
2019-03-18T11:58:54.041Z,20.10
2019-03-18T12:01:24.378Z,20.10
2019-03-18T12:03:54.698Z,20.40
2019-03-18T12:06:24.874Z,20.80
2019-03-18T12:08:55.103Z,20.80
2019-03-18T12:11:25.393Z,20.90
2019-03-18T12:13:55.664Z,20.50
2019-03-18T12:16:26.006Z,20.50
2019-03-18T12:18:56.352Z,20.70
2019-03-18T12:21:26.652Z,21.10
2019-03-18T12:23:56.934Z,20.50
2019-03-18T12:26:27.208Z,20.90
2019-03-18T12:28:57.479Z,21.40
2019-03-18T12:31:27.842Z,22.00
2019-03-18T12:33:58.065Z,22.50
2019-03-18T12:36:28.462Z,22.60
2019-03-18T12:38:58.836Z,23.00
2019-03-18T12:41:29.290Z,23.30
2019-03-18T12:43:59.403Z,23.20
2019-03-18T12:46:29.554Z,23.20
2019-03-18T12:48:59.859Z,23.20
2019-03-18T12:51:29.981Z,23.20
2019-03-18T12:54:00.324Z,23.20
2019-03-18T12:56:30.735Z,23.30
2019-03-18T12:59:00.991Z,23.50
2019-03-18T13:01:31.319Z,23.70
2019-03-18T13:04:01.690Z,23.70
2019-03-18T13:06:33.511Z,23.90
2019-03-18T13:09:04.261Z,23.70
2019-03-18T13:11:34.586Z,23.90
2019-03-18T13:14:04.890Z,24.10
2019-03-18T13:16:35.206Z,24.30
2019-03-18T13:19:05.487Z,24.00
2019-03-18T13:21:35.950Z,24.20
2019-03-18T13:24:06.250Z,24.20
2019-03-18T13:26:36.628Z,24.30
2019-03-18T13:29:06.919Z,24.20
2019-03-18T13:31:37.214Z,24.50
2019-03-18T13:34:07.497Z,24.60
2019-03-18T13:36:37.801Z,24.60
2019-03-18T13:39:09.618Z,24.50
2019-03-18T13:41:39.991Z,24.60
2019-03-18T13:44:10.269Z,24.50
2019-03-18T13:46:40.618Z,24.50
2019-03-18T13:49:10.998Z,25.00
2019-03-18T13:51:41.270Z,25.40
2019-03-18T13:54:11.565Z,25.20
2019-03-18T13:56:41.939Z,25.30
2019-03-18T13:59:12.337Z,25.40
2019-03-18T14:01:42.663Z,25.30
2019-03-18T14:04:13.123Z,25.50
2019-03-18T14:06:43.391Z,25.60
2019-03-18T14:09:13.694Z,25.10
2019-03-18T14:11:44.013Z,25.10
2019-03-18T14:14:14.386Z,25.60
2019-03-18T14:16:44.662Z,25.90
2019-03-18T14:19:15.039Z,25.30
2019-03-18T14:21:45.414Z,25.30
2019-03-18T14:24:15.769Z,25.70
2019-03-18T14:26:46.155Z,25.70
2019-03-18T14:29:16.533Z,25.60
2019-03-18T14:31:48.480Z,25.60
2019-03-18T14:34:18.842Z,25.80
2019-03-18T14:36:49.063Z,25.70
2019-03-18T14:39:19.315Z,25.80
2019-03-18T14:41:49.622Z,25.90
2019-03-18T14:44:19.824Z,26.50
2019-03-18T14:46:50.078Z,26.70
2019-03-18T14:49:20.410Z,26.60
2019-03-18T14:51:51.095Z,26.40
2019-03-18T14:54:21.366Z,26.70
2019-03-18T14:56:51.612Z,27.00
2019-03-18T14:59:21.904Z,26.80
2019-03-18T15:01:52.079Z,26.60
2019-03-18T15:04:22.302Z,26.70
2019-03-18T15:09:32.760Z,26.60
2019-03-18T15:12:03.252Z,26.20
2019-03-18T15:14:33.427Z,26.10
2019-03-18T15:17:03.753Z,26.20
2019-03-18T15:19:34.228Z,25.80
2019-03-18T15:22:04.665Z,25.20
2019-03-18T15:24:35.006Z,25.10
2019-03-18T15:27:05.274Z,25.30
2019-03-18T15:29:35.895Z,25.40
2019-03-18T15:32:06.470Z,25.20
2019-03-18T15:34:37.927Z,25.30
2019-03-18T15:37:10.233Z,25.10
2019-03-18T15:39:40.654Z,24.60
2019-03-18T15:42:10.818Z,24.30
2019-03-18T15:44:41.841Z,24.10
2019-03-18T15:47:12.052Z,23.20
2019-03-18T15:49:43.496Z,22.80
2019-03-18T15:52:13.928Z,23.10
2019-03-18T15:54:53.675Z,23.20
2019-03-18T15:57:29.268Z,21.90
2019-03-18T15:59:50.022Z,21.00
2019-03-18T16:02:20.523Z,20.80
2019-03-18T16:04:50.931Z,21.20
2019-03-18T16:07:21.119Z,21.40
2019-03-18T16:09:51.430Z,21.90
2019-03-18T16:12:21.659Z,22.10
2019-03-18T16:14:51.898Z,22.10
2019-03-18T16:17:22.274Z,21.90
2019-03-18T16:19:52.506Z,20.60
2019-03-18T16:22:23.866Z,20.10
2019-03-18T16:24:54.523Z,19.60
2019-03-18T16:27:24.807Z,19.20
2019-03-18T16:29:55.056Z,19.70
2019-03-18T16:32:25.330Z,20.30
2019-03-18T16:34:55.576Z,20.40
2019-03-18T16:37:25.797Z,19.60
2019-03-18T16:39:55.993Z,19.60
2019-03-18T16:42:26.297Z,19.70
2019-03-18T16:44:56.534Z,20.00
2019-03-18T16:47:26.822Z,20.00
2019-03-18T16:49:57.170Z,20.00
2019-03-18T16:52:35.766Z,19.80
2019-03-18T16:54:59.474Z,19.70
2019-03-18T16:57:29.699Z,19.70
2019-03-18T16:59:59.952Z,19.60
2019-03-18T17:02:30.249Z,19.30
2019-03-18T17:05:00.536Z,18.90
2019-03-18T17:07:30.783Z,18.70
2019-03-18T17:10:01.150Z,18.50
2019-03-18T17:12:31.366Z,18.30
2019-03-18T17:15:01.730Z,17.90
2019-03-18T17:17:32.052Z,17.30
2019-03-18T17:20:02.481Z,16.80
2019-03-18T17:22:32.763Z,16.30
2019-03-18T17:25:02.958Z,15.80
2019-03-18T17:27:33.268Z,15.20
2019-03-18T17:30:03.586Z,14.70
2019-03-18T17:32:33.902Z,14.20
2019-03-18T17:35:04.294Z,13.70
2019-03-18T17:37:34.476Z,13.30
2019-03-18T17:40:04.827Z,13.00
2019-03-18T17:42:35.085Z,12.70
2019-03-18T17:45:05.519Z,12.40
2019-03-18T17:47:35.809Z,12.20
2019-03-18T17:50:06.390Z,12.00
2019-03-18T17:52:36.625Z,11.80
2019-03-18T17:55:07.296Z,11.60
2019-03-18T17:57:37.659Z,11.50
2019-03-18T18:00:09.051Z,11.40
2019-03-18T18:02:39.287Z,11.30
2019-03-18T18:05:10.103Z,11.20
2019-03-18T18:07:40.567Z,11.10
2019-03-18T18:10:11.155Z,11.00
2019-03-18T18:12:41.277Z,10.90
2019-03-18T18:15:11.504Z,10.70
2019-03-18T18:17:41.862Z,10.70
2019-03-18T18:20:12.346Z,10.60
2019-03-18T18:22:42.610Z,10.60
2019-03-18T18:25:13.010Z,10.50
2019-03-18T18:27:43.204Z,10.50
2019-03-18T18:30:13.726Z,10.40
2019-03-18T18:32:44.111Z,10.30
2019-03-18T18:35:14.465Z,10.30
2019-03-18T18:37:44.792Z,10.20
2019-03-18T18:40:15.164Z,10.20
2019-03-18T18:42:45.485Z,10.10
2019-03-18T18:45:16.671Z,10.10
2019-03-18T18:47:47.152Z,10.00
2019-03-18T18:50:20.754Z,10.00
2019-03-18T18:52:53.376Z,9.90
2019-03-18T18:55:23.776Z,10.00
2019-03-18T18:57:54.135Z,9.90
2019-03-18T19:00:24.448Z,9.90
2019-03-18T19:02:54.705Z,9.90
2019-03-18T19:05:24.900Z,9.80
2019-03-18T19:07:57.479Z,9.80
2019-03-18T19:10:27.022Z,9.80
2019-03-18T19:12:57.367Z,9.80
2019-03-18T19:15:28.100Z,9.80
2019-03-18T19:17:58.387Z,9.80
2019-03-18T19:20:28.611Z,9.80
2019-03-18T19:22:58.827Z,9.80
2019-03-18T19:25:29.093Z,9.70
2019-03-18T19:27:59.518Z,9.70
2019-03-18T19:30:30.144Z,9.60
2019-03-18T19:33:00.395Z,9.60
2019-03-18T19:35:30.657Z,9.50
2019-03-18T19:38:01.200Z,9.50
2019-03-18T19:40:31.527Z,9.50
2019-03-18T19:43:01.776Z,9.50
2019-03-18T19:45:32.076Z,9.50
2019-03-18T19:48:02.368Z,9.50
2019-03-18T19:50:32.597Z,9.40
2019-03-18T19:53:02.848Z,9.40
2019-03-18T19:55:33.114Z,9.50
2019-03-18T19:58:03.352Z,9.50
2019-03-18T20:00:33.635Z,9.50
2019-03-18T20:03:03.883Z,9.60
2019-03-18T20:05:34.099Z,9.60
2019-03-18T20:08:04.650Z,9.60
2019-03-18T20:10:34.874Z,9.60
2019-03-18T20:13:05.240Z,9.50
2019-03-18T20:15:35.543Z,9.50
2019-03-18T20:18:05.962Z,9.40
2019-03-18T20:20:36.263Z,9.30
2019-03-18T20:23:06.651Z,9.30
2019-03-18T20:25:37.060Z,9.20
2019-03-18T20:28:07.311Z,9.20
2019-03-18T20:30:37.675Z,9.20
2019-03-18T20:33:07.995Z,9.30
2019-03-18T20:35:38.215Z,9.30
2019-03-18T20:38:08.452Z,9.20
2019-03-18T20:40:38.747Z,9.20
2019-03-18T20:43:09.047Z,9.20
2019-03-18T20:45:39.458Z,9.20
2019-03-18T20:48:09.826Z,9.20
2019-03-18T20:50:40.010Z,9.20
2019-03-18T20:53:10.267Z,9.20
2019-03-18T20:55:40.490Z,9.20
2019-03-18T20:58:10.718Z,9.20
2019-03-18T21:00:40.951Z,9.20
2019-03-18T21:03:11.277Z,9.10
2019-03-18T21:05:41.621Z,9.00
2019-03-18T21:08:11.967Z,8.80
2019-03-18T21:10:42.329Z,8.70
2019-03-18T21:13:12.551Z,8.60
2019-03-18T21:15:42.746Z,8.50
2019-03-18T21:18:12.995Z,8.50
2019-03-18T21:20:43.255Z,8.40
2019-03-18T21:23:13.555Z,8.50
2019-03-18T21:25:43.762Z,8.40
2019-03-18T21:28:14.083Z,8.40
2019-03-18T21:30:44.363Z,8.40
2019-03-18T21:33:14.610Z,8.40
2019-03-18T21:35:45.069Z,8.30
2019-03-18T21:38:15.219Z,8.30
2019-03-18T21:40:45.571Z,8.30
2019-03-18T21:43:15.795Z,8.30
2019-03-18T21:45:46.105Z,8.30
2019-03-18T21:48:16.455Z,8.30
2019-03-18T21:50:46.829Z,8.20
2019-03-18T21:53:17.144Z,8.20
2019-03-18T21:55:47.395Z,8.20
2019-03-18T21:58:17.653Z,8.20
2019-03-18T22:00:48.021Z,8.10
2019-03-18T22:03:18.375Z,8.10
2019-03-18T22:05:48.581Z,8.10
2019-03-18T22:08:18.941Z,8.10
2019-03-18T22:10:49.271Z,8.10
2019-03-18T22:13:19.540Z,8.10
2019-03-18T22:15:49.831Z,8.10
2019-03-18T22:18:20.135Z,8.00
2019-03-18T22:20:50.535Z,8.00
2019-03-18T22:23:20.828Z,8.00
2019-03-18T22:25:51.094Z,8.00
2019-03-18T22:28:21.331Z,7.90
2019-03-18T22:30:51.715Z,7.90
2019-03-18T22:33:22.022Z,7.90
2019-03-18T22:35:52.279Z,7.90
2019-03-18T22:38:22.771Z,7.80
2019-03-18T22:40:53.051Z,7.80
2019-03-18T22:43:23.252Z,7.80
2019-03-18T22:45:53.521Z,7.80
2019-03-18T22:48:23.796Z,7.80
2019-03-18T22:50:54.040Z,7.80
2019-03-18T22:53:24.726Z,7.70
2019-03-18T22:55:55.069Z,7.70
2019-03-18T22:58:25.300Z,7.70
2019-03-18T23:01:26.917Z,7.70
2019-03-18T23:03:57.260Z,7.70
2019-03-18T23:06:27.519Z,7.70
2019-03-18T23:08:57.795Z,7.60
2019-03-18T23:11:28.111Z,7.60
2019-03-18T23:13:58.362Z,7.50
2019-03-18T23:16:28.658Z,7.50
2019-03-18T23:18:59.036Z,7.40
2019-03-18T23:21:29.298Z,7.30
2019-03-18T23:23:59.617Z,7.30
2019-03-18T23:26:29.898Z,7.20
2019-03-18T23:29:00.223Z,7.20
2019-03-18T23:31:30.696Z,7.20
2019-03-18T23:34:00.960Z,7.10
2019-03-18T23:36:31.154Z,7.10
2019-03-18T23:39:01.576Z,7.10
2019-03-18T23:41:31.812Z,7.10
2019-03-18T23:44:02.047Z,7.10
2019-03-18T23:46:32.339Z,7.00
2019-03-18T23:49:02.783Z,7.00
2019-03-18T23:51:33.077Z,7.00
2019-03-18T23:54:03.372Z,7.00
2019-03-18T23:56:33.657Z,6.90
2019-03-18T23:59:03.925Z,6.90
